createdAt,value
2023-08-18T00:00:19.997Z,66.87
2023-08-18T00:01:20.037Z,68.32
2023-08-18T00:02:20.006Z,71.38
2023-08-18T00:03:20.016Z,65.10
2023-08-18T00:04:20.002Z,63.33
2023-08-18T00:05:19.967Z,68.00
2023-08-18T00:06:19.961Z,68.64
2023-08-18T00:07:19.937Z,63.33
2023-08-18T00:08:19.940Z,68.96
2023-08-18T00:09:19.909Z,68.96
2023-08-18T00:10:19.904Z,69.93
2023-08-18T00:11:19.940Z,70.25
2023-08-18T00:12:19.884Z,71.54
2023-08-18T00:13:19.884Z,66.55
2023-08-18T00:14:19.860Z,67.51
2023-08-18T00:15:19.939Z,66.55
2023-08-18T00:16:19.904Z,68.48
2023-08-18T00:17:19.832Z,67.03
2023-08-18T00:18:19.830Z,68.00
2023-08-18T00:19:19.816Z,66.71
2023-08-18T00:20:19.828Z,70.42
2023-08-18T00:21:19.796Z,69.61
2023-08-18T00:22:19.779Z,65.74
2023-08-18T00:23:19.782Z,67.51
2023-08-18T00:24:19.779Z,70.25
2023-08-18T00:25:19.781Z,68.48
2023-08-18T00:26:19.741Z,68.48
2023-08-18T00:27:19.727Z,63.65
2023-08-18T00:28:19.719Z,67.51
2023-08-18T00:29:19.726Z,68.48
2023-08-18T00:30:19.721Z,71.38
2023-08-18T00:31:19.732Z,68.96
2023-08-18T00:32:19.686Z,69.45
2023-08-18T00:33:19.687Z,63.49
2023-08-18T00:34:19.680Z,66.87
2023-08-18T00:35:19.713Z,68.48
2023-08-18T00:36:19.652Z,67.51
2023-08-18T00:37:19.630Z,69.61
2023-08-18T00:38:19.625Z,69.77
2023-08-18T00:39:19.634Z,69.13
2023-08-18T00:40:19.612Z,66.39
2023-08-18T00:41:19.608Z,63.81
2023-08-18T00:42:19.594Z,67.19
2023-08-18T00:43:19.592Z,74.93
2023-08-18T00:44:19.578Z,69.61
2023-08-18T00:45:19.558Z,68.00
2023-08-18T00:46:19.551Z,68.80
2023-08-18T00:47:19.560Z,68.64
2023-08-18T00:48:19.558Z,66.87
2023-08-18T00:49:19.553Z,69.29
2023-08-18T00:50:19.534Z,67.68
2023-08-18T00:51:19.500Z,69.93
2023-08-18T00:52:19.503Z,67.19
2023-08-18T00:53:19.524Z,71.06
2023-08-18T00:54:19.464Z,66.71
2023-08-18T00:55:19.462Z,67.51
2023-08-18T00:56:19.444Z,70.74
2023-08-18T00:57:19.448Z,62.36
2023-08-18T00:58:19.438Z,68.48
2023-08-18T00:59:19.423Z,68.96
2023-08-18T01:00:19.401Z,65.74
2023-08-18T01:01:19.453Z,70.09
2023-08-18T01:02:19.421Z,67.68
2023-08-18T01:03:19.447Z,70.25
2023-08-18T01:04:19.372Z,71.06
2023-08-18T01:05:19.371Z,68.64
2023-08-18T01:06:19.375Z,69.13
2023-08-18T01:07:19.363Z,67.84
2023-08-18T01:08:19.324Z,72.19
2023-08-18T01:09:19.317Z,70.42
2023-08-18T01:10:19.306Z,66.23
2023-08-18T01:11:19.309Z,68.32
2023-08-18T01:12:19.313Z,69.13
2023-08-18T01:13:19.273Z,69.13
2023-08-18T01:14:19.297Z,69.45
2023-08-18T01:15:19.259Z,68.96
2023-08-18T01:16:19.278Z,69.13
2023-08-18T01:17:19.234Z,66.23
2023-08-18T01:18:19.237Z,69.13
2023-08-18T01:19:19.217Z,67.03
2023-08-18T01:20:19.236Z,67.68
2023-08-18T01:21:19.228Z,68.32
2023-08-18T01:22:19.191Z,69.93
2023-08-18T01:23:19.180Z,70.74
2023-08-18T01:24:19.161Z,68.00
2023-08-18T01:25:19.187Z,64.61
2023-08-18T01:26:19.151Z,68.48
2023-08-18T01:27:19.129Z,68.64
2023-08-18T01:28:19.136Z,68.64
2023-08-18T01:29:19.132Z,68.16
2023-08-18T01:30:19.149Z,65.26
2023-08-18T01:31:19.102Z,67.68
2023-08-18T01:32:19.087Z,65.26
2023-08-18T01:33:19.075Z,67.35
2023-08-18T01:34:19.082Z,68.16
2023-08-18T01:35:19.093Z,66.39
2023-08-18T01:36:19.044Z,63.81
2023-08-18T01:37:19.023Z,67.51
2023-08-18T01:38:19.054Z,65.90
2023-08-18T01:39:19.029Z,67.84
2023-08-18T01:40:19.009Z,69.77
2023-08-18T01:41:18.985Z,70.58
2023-08-18T01:42:18.976Z,62.84
2023-08-18T01:43:18.967Z,68.16
2023-08-18T01:44:18.970Z,67.84
2023-08-18T01:45:18.971Z,70.90
2023-08-18T01:46:18.948Z,67.35
2023-08-18T01:47:18.929Z,66.71
2023-08-18T01:48:18.987Z,69.61
2023-08-18T01:49:18.913Z,64.78
2023-08-18T01:50:18.898Z,69.29
2023-08-18T01:51:18.911Z,67.84
2023-08-18T01:52:18.881Z,68.00
2023-08-18T01:53:18.882Z,68.32
2023-08-18T01:54:18.867Z,67.68
2023-08-18T01:55:18.865Z,66.23
2023-08-18T01:56:18.835Z,71.06
2023-08-18T01:57:18.855Z,69.61
2023-08-18T01:58:18.834Z,68.96
2023-08-18T01:59:18.817Z,67.68
2023-08-18T02:00:21.071Z,65.26
2023-08-18T02:01:19.811Z,66.55
2023-08-18T02:02:18.809Z,68.80
2023-08-18T02:03:18.861Z,67.35
2023-08-18T02:04:18.819Z,67.68
2023-08-18T02:05:18.772Z,63.97
2023-08-18T02:06:18.743Z,67.51
2023-08-18T02:07:18.765Z,64.78
2023-08-18T02:08:18.776Z,68.00
2023-08-18T02:09:18.711Z,71.06
2023-08-18T02:10:18.710Z,69.61
2023-08-18T02:11:18.689Z,67.51
2023-08-18T02:12:18.695Z,72.03
2023-08-18T02:13:18.694Z,68.16
2023-08-18T02:14:18.652Z,69.61
2023-08-18T02:15:18.645Z,68.32
2023-08-18T02:16:18.783Z,67.51
2023-08-18T02:17:18.649Z,71.06
2023-08-18T02:18:18.616Z,69.13
2023-08-18T02:19:18.636Z,65.90
2023-08-18T02:20:18.613Z,64.94
2023-08-18T02:21:18.600Z,68.32
2023-08-18T02:22:18.573Z,68.64
2023-08-18T02:23:18.568Z,67.35
2023-08-18T02:24:18.563Z,69.77
2023-08-18T02:25:18.548Z,66.87
2023-08-18T02:26:18.557Z,68.96
2023-08-18T02:27:18.561Z,68.16
2023-08-18T02:28:18.516Z,68.48
2023-08-18T02:29:18.509Z,66.39
2023-08-18T02:30:18.509Z,69.77
2023-08-18T02:31:18.550Z,67.51
2023-08-18T02:32:18.474Z,68.48
2023-08-18T02:33:18.502Z,68.48
2023-08-18T02:34:18.463Z,66.87
2023-08-18T02:35:18.470Z,68.00
2023-08-18T02:36:18.436Z,65.74
2023-08-18T02:37:18.434Z,68.96
2023-08-18T02:38:18.409Z,68.48
2023-08-18T02:39:18.403Z,69.93
2023-08-18T02:40:18.419Z,72.19
2023-08-18T02:41:18.388Z,67.03
2023-08-18T02:42:18.380Z,69.45
2023-08-18T02:43:18.359Z,69.61
2023-08-18T02:44:18.376Z,68.96
2023-08-18T02:45:18.368Z,69.29
2023-08-18T02:46:18.348Z,73.64
2023-08-18T02:47:19.318Z,68.48
2023-08-18T02:48:18.312Z,69.13
2023-08-18T02:49:18.319Z,69.93
2023-08-18T02:50:18.293Z,68.32
2023-08-18T02:51:18.293Z,69.77
2023-08-18T02:52:18.283Z,67.35
2023-08-18T02:53:18.261Z,68.16
2023-08-18T02:54:18.266Z,69.13
2023-08-18T02:55:18.259Z,65.58
2023-08-18T02:56:18.234Z,68.96
2023-08-18T02:57:18.221Z,71.22
2023-08-18T02:58:18.220Z,68.32
2023-08-18T02:59:18.220Z,69.93
2023-08-18T03:00:18.195Z,68.00
2023-08-18T03:01:18.193Z,66.55
2023-08-18T03:02:18.165Z,70.09
2023-08-18T03:03:18.262Z,70.09
2023-08-18T03:04:18.152Z,69.13
2023-08-18T03:05:18.150Z,69.93
2023-08-18T03:06:18.136Z,70.58
2023-08-18T03:07:18.132Z,69.93
2023-08-18T03:08:18.124Z,69.93
2023-08-18T03:09:18.096Z,67.68
2023-08-18T03:10:18.097Z,71.54
2023-08-18T03:11:18.092Z,69.61
2023-08-18T03:12:18.094Z,69.77
2023-08-18T03:13:18.122Z,71.70
2023-08-18T03:14:18.044Z,68.48
2023-08-18T03:15:18.032Z,72.67
2023-08-18T03:16:18.075Z,71.06
2023-08-18T03:17:18.046Z,69.61
2023-08-18T03:18:18.006Z,71.54
2023-08-18T03:19:18.009Z,70.25
2023-08-18T03:20:17.984Z,69.45
2023-08-18T03:21:17.986Z,68.80
2023-08-18T03:22:17.971Z,68.00
2023-08-18T03:23:17.941Z,72.51
2023-08-18T03:24:17.941Z,69.77
2023-08-18T03:25:17.941Z,68.80
2023-08-18T03:26:17.938Z,68.16
2023-08-18T03:27:17.936Z,69.13
2023-08-18T03:28:17.892Z,67.51
2023-08-18T03:29:17.892Z,70.25
2023-08-18T03:30:17.932Z,69.61
2023-08-18T03:31:17.898Z,67.84
2023-08-18T03:32:17.855Z,69.61
2023-08-18T03:33:17.914Z,68.48
2023-08-18T03:34:17.842Z,68.96
2023-08-18T03:35:17.845Z,69.93
2023-08-18T03:36:17.834Z,69.13
2023-08-18T03:37:17.806Z,68.16
2023-08-18T03:38:17.793Z,70.74
2023-08-18T03:39:17.786Z,72.51
2023-08-18T03:40:17.805Z,70.09
2023-08-18T03:41:17.764Z,68.48
2023-08-18T03:42:17.752Z,68.32
2023-08-18T03:43:17.742Z,70.58
2023-08-18T03:44:17.760Z,69.61
2023-08-18T03:45:17.752Z,70.25
2023-08-18T03:46:17.742Z,70.58
2023-08-18T03:47:17.709Z,69.29
2023-08-18T03:48:17.692Z,70.25
2023-08-18T03:49:17.716Z,69.61
2023-08-18T03:50:17.694Z,69.77
2023-08-18T03:51:17.663Z,68.16
2023-08-18T03:52:17.654Z,66.39
2023-08-18T03:53:17.640Z,67.68
2023-08-18T03:54:17.664Z,67.68
2023-08-18T03:55:17.641Z,69.29
2023-08-18T03:56:17.609Z,69.77
2023-08-18T03:57:17.594Z,69.61
2023-08-18T03:58:17.595Z,68.16
2023-08-18T03:59:17.596Z,71.54
2023-08-18T04:00:17.567Z,70.09
2023-08-18T04:01:17.755Z,69.13
2023-08-18T04:02:17.554Z,71.22
2023-08-18T04:03:17.654Z,73.48
2023-08-18T04:04:17.546Z,71.06
2023-08-18T04:05:17.518Z,69.61
2023-08-18T04:06:17.508Z,70.09
2023-08-18T04:07:17.497Z,71.06
2023-08-18T04:08:17.522Z,69.45
2023-08-18T04:09:17.488Z,68.32
2023-08-18T04:10:17.475Z,69.77
2023-08-18T04:11:17.457Z,66.71
2023-08-18T04:12:17.446Z,68.96
2023-08-18T04:13:17.469Z,68.00
2023-08-18T04:14:17.434Z,68.00
2023-08-18T04:15:17.474Z,70.09
2023-08-18T04:16:17.456Z,70.58
2023-08-18T04:17:17.414Z,67.19
2023-08-18T04:18:17.403Z,68.32
2023-08-18T04:19:17.380Z,70.42
2023-08-18T04:20:17.374Z,69.61
2023-08-18T04:21:17.370Z,68.96
2023-08-18T04:22:17.364Z,68.96
2023-08-18T04:23:17.336Z,68.48
2023-08-18T04:24:17.323Z,69.93
2023-08-18T04:25:17.330Z,69.61
2023-08-18T04:26:17.307Z,68.48
2023-08-18T04:27:17.318Z,70.58
2023-08-18T04:28:17.299Z,72.35
2023-08-18T04:29:17.277Z,70.42
2023-08-18T04:30:17.262Z,71.22
2023-08-18T04:31:17.394Z,71.06
2023-08-18T04:32:17.263Z,68.96
2023-08-18T04:33:17.231Z,68.64
2023-08-18T04:34:17.228Z,70.09
2023-08-18T04:35:17.216Z,67.19
2023-08-18T04:36:17.233Z,69.93
2023-08-18T04:37:17.194Z,68.32
2023-08-18T04:38:17.177Z,69.13
2023-08-18T04:39:17.171Z,68.48
2023-08-18T04:40:17.166Z,69.77
2023-08-18T04:41:17.155Z,68.96
2023-08-18T04:42:18.144Z,70.42
2023-08-18T04:43:17.137Z,68.96
2023-08-18T04:44:17.118Z,69.13
2023-08-18T04:45:17.137Z,68.96
2023-08-18T04:46:17.127Z,70.58
2023-08-18T04:47:17.106Z,69.13
2023-08-18T04:48:17.096Z,69.61
2023-08-18T04:49:17.093Z,70.58
2023-08-18T04:50:17.072Z,69.61
2023-08-18T04:51:17.056Z,70.42
2023-08-18T04:52:17.037Z,68.16
2023-08-18T04:53:17.045Z,68.48
2023-08-18T04:54:17.012Z,68.96
2023-08-18T04:55:17.021Z,68.80
2023-08-18T04:56:17.015Z,68.16
2023-08-18T04:57:17.155Z,67.19
2023-08-18T04:58:16.999Z,67.68
2023-08-18T04:59:17.991Z,71.54
2023-08-18T05:00:16.970Z,69.13
2023-08-18T05:01:16.975Z,69.29
2023-08-18T05:02:16.943Z,67.68
2023-08-18T05:03:17.026Z,67.51
2023-08-18T05:04:16.931Z,69.77
2023-08-18T05:05:16.900Z,70.58
2023-08-18T05:06:16.897Z,68.80
2023-08-18T05:07:16.891Z,68.48
2023-08-18T05:08:16.868Z,71.06
2023-08-18T05:09:17.898Z,70.42
2023-08-18T05:10:16.859Z,68.96
2023-08-18T05:11:16.847Z,68.48
2023-08-18T05:12:16.834Z,69.93
2023-08-18T05:13:16.842Z,70.09
2023-08-18T05:14:16.841Z,68.64
2023-08-18T05:15:16.803Z,69.77
2023-08-18T05:16:16.827Z,68.00
2023-08-18T05:17:16.784Z,69.13
2023-08-18T05:18:16.785Z,65.90
2023-08-18T05:19:16.776Z,66.71
2023-08-18T05:20:16.814Z,69.45
2023-08-18T05:21:16.743Z,69.13
2023-08-18T05:22:16.719Z,69.29
2023-08-18T05:23:17.768Z,68.00
2023-08-18T05:24:16.705Z,67.03
2023-08-18T05:25:16.711Z,67.03
2023-08-18T05:26:16.693Z,67.03
2023-08-18T05:27:16.695Z,67.51
2023-08-18T05:28:16.872Z,68.32
2023-08-18T05:29:16.655Z,65.74
2023-08-18T05:30:16.645Z,68.48
2023-08-18T05:31:16.717Z,68.48
2023-08-18T05:32:16.637Z,67.84
2023-08-18T05:33:16.614Z,67.68
2023-08-18T05:34:16.617Z,66.55
2023-08-18T05:35:16.590Z,67.19
2023-08-18T05:36:16.587Z,68.00
2023-08-18T05:37:16.591Z,68.16
2023-08-18T05:38:16.593Z,67.51
2023-08-18T05:39:16.554Z,67.68
2023-08-18T05:40:16.547Z,70.90
2023-08-18T05:41:16.706Z,66.23
2023-08-18T05:42:16.545Z,68.48
2023-08-18T05:43:16.507Z,67.35
2023-08-18T05:44:16.492Z,65.74
2023-08-18T05:45:16.493Z,68.32
2023-08-18T05:46:16.592Z,67.35
2023-08-18T05:47:16.468Z,67.51
2023-08-18T05:48:16.460Z,66.55
2023-08-18T05:49:16.449Z,67.68
2023-08-18T05:50:16.441Z,68.32
2023-08-18T05:51:16.459Z,69.93
2023-08-18T05:52:16.413Z,66.23
2023-08-18T05:53:16.412Z,65.26
2023-08-18T05:54:16.400Z,67.19
2023-08-18T05:55:16.429Z,68.96
2023-08-18T05:56:16.397Z,68.00
2023-08-18T05:57:16.375Z,70.25
2023-08-18T05:58:16.379Z,66.23
2023-08-18T05:59:16.382Z,68.00
2023-08-18T06:00:16.371Z,67.84
2023-08-18T06:01:16.363Z,64.61
2023-08-18T06:02:16.321Z,66.23
2023-08-18T06:03:16.320Z,66.87
2023-08-18T06:04:16.381Z,66.87
2023-08-18T06:05:16.301Z,68.48
2023-08-18T06:06:16.288Z,66.71
2023-08-18T06:07:16.263Z,66.39
2023-08-18T06:08:16.255Z,65.10
2023-08-18T06:09:16.274Z,64.94
2023-08-18T06:10:16.266Z,65.90
2023-08-18T06:11:16.234Z,67.03
2023-08-18T06:12:16.247Z,67.03
2023-08-18T06:13:16.213Z,67.03
2023-08-18T06:14:16.215Z,67.84
2023-08-18T06:15:16.189Z,67.19
2023-08-18T06:16:16.232Z,64.13
2023-08-18T06:17:16.166Z,64.78
2023-08-18T06:18:16.179Z,68.16
2023-08-18T06:19:16.172Z,67.51
2023-08-18T06:20:16.163Z,64.45
2023-08-18T06:21:16.125Z,65.42
2023-08-18T06:22:16.123Z,66.39
2023-08-18T06:23:16.193Z,65.58
2023-08-18T06:24:16.097Z,66.39
2023-08-18T06:25:16.086Z,67.19
2023-08-18T06:26:16.076Z,67.03
2023-08-18T06:27:16.068Z,67.51
2023-08-18T06:28:16.079Z,65.26
2023-08-18T06:29:16.049Z,66.23
2023-08-18T06:30:16.061Z,64.45
2023-08-18T06:31:16.049Z,63.97
2023-08-18T06:32:16.057Z,64.13
2023-08-18T06:33:16.458Z,64.94
2023-08-18T06:34:16.014Z,63.97
2023-08-18T06:35:15.998Z,64.78
2023-08-18T06:36:15.983Z,65.42
2023-08-18T06:37:16.015Z,66.87
2023-08-18T06:38:15.961Z,66.39
2023-08-18T06:39:15.956Z,66.55
2023-08-18T06:40:15.940Z,66.23
2023-08-18T06:41:15.942Z,65.10
2023-08-18T06:42:15.949Z,65.26
2023-08-18T06:43:15.920Z,66.23
2023-08-18T06:44:15.909Z,66.39
2023-08-18T06:45:15.896Z,65.58
2023-08-18T06:46:15.946Z,64.61
2023-08-18T06:47:15.886Z,63.16
2023-08-18T06:48:15.870Z,65.74
2023-08-18T06:49:15.919Z,63.65
2023-08-18T06:50:15.851Z,65.10
2023-08-18T06:51:15.843Z,67.35
2023-08-18T06:52:15.823Z,68.80
2023-08-18T06:53:15.808Z,66.71
2023-08-18T06:54:15.808Z,64.78
2023-08-18T06:55:20.961Z,63.49
2023-08-18T06:56:16.798Z,66.06
2023-08-18T06:57:15.768Z,65.42
2023-08-18T06:58:15.821Z,65.26
2023-08-18T06:59:15.756Z,65.74
2023-08-18T07:00:15.765Z,67.84
2023-08-18T07:01:15.813Z,64.29
2023-08-18T07:02:15.766Z,65.26
2023-08-18T07:03:15.888Z,65.58
2023-08-18T07:04:15.702Z,65.90
2023-08-18T07:05:15.712Z,63.81
2023-08-18T07:06:15.714Z,68.00
2023-08-18T07:07:15.686Z,66.23
2023-08-18T07:08:15.660Z,67.03
2023-08-18T07:09:15.657Z,65.42
2023-08-18T07:10:15.663Z,66.06
2023-08-18T07:11:15.633Z,67.84
2023-08-18T07:12:16.628Z,65.26
2023-08-18T07:13:15.612Z,68.00
2023-08-18T07:14:15.620Z,68.48
2023-08-18T07:15:15.602Z,65.74
2023-08-18T07:16:15.718Z,65.26
2023-08-18T07:17:15.581Z,65.10
2023-08-18T07:18:15.562Z,66.06
2023-08-18T07:19:15.590Z,66.39
2023-08-18T07:20:15.580Z,63.49
2023-08-18T07:21:15.538Z,67.51
2023-08-18T07:22:15.515Z,65.26
2023-08-18T07:23:15.508Z,66.71
2023-08-18T07:24:15.516Z,66.71
2023-08-18T07:25:15.499Z,62.68
2023-08-18T07:26:15.472Z,63.16
2023-08-18T07:27:15.480Z,64.29
2023-08-18T07:28:15.469Z,65.58
2023-08-18T07:29:15.462Z,64.78
2023-08-18T07:30:15.431Z,67.03
2023-08-18T07:31:15.508Z,66.55
2023-08-18T07:32:15.442Z,65.74
2023-08-18T07:33:15.444Z,64.61
2023-08-18T07:34:15.395Z,66.06
2023-08-18T07:35:15.378Z,64.45
2023-08-18T07:36:15.372Z,69.93
2023-08-18T07:37:15.518Z,66.55
2023-08-18T07:38:15.381Z,68.32
2023-08-18T07:39:15.341Z,66.23
2023-08-18T07:40:15.326Z,68.80
2023-08-18T07:41:15.319Z,67.51
2023-08-18T07:42:15.324Z,67.68
2023-08-18T07:43:15.317Z,64.78
2023-08-18T07:44:15.277Z,67.68
2023-08-18T07:45:15.276Z,66.39
2023-08-18T07:46:15.410Z,66.55
2023-08-18T07:47:15.305Z,66.23
2023-08-18T07:48:15.235Z,64.78
2023-08-18T07:49:15.270Z,67.19
2023-08-18T07:50:15.219Z,68.00
2023-08-18T07:51:15.201Z,66.39
2023-08-18T07:52:15.217Z,66.23
2023-08-18T07:53:16.411Z,66.06
2023-08-18T07:54:15.181Z,68.00
2023-08-18T07:55:15.171Z,66.87
2023-08-18T07:56:15.181Z,66.71
2023-08-18T07:57:15.173Z,67.51
2023-08-18T07:58:16.600Z,66.55
2023-08-18T07:59:15.154Z,66.87
2023-08-18T08:00:15.124Z,66.06
2023-08-18T08:01:15.162Z,67.35
2023-08-18T08:02:30.950Z,67.68
2023-08-18T08:03:17.209Z,66.87
2023-08-18T08:04:16.115Z,66.55
2023-08-18T08:05:15.087Z,66.71
2023-08-18T08:06:15.075Z,66.39
2023-08-18T08:07:15.043Z,66.55
2023-08-18T08:08:15.041Z,66.55
2023-08-18T08:09:15.054Z,66.87
2023-08-18T08:10:15.028Z,66.71
2023-08-18T08:11:15.018Z,66.55
2023-08-18T08:12:15.006Z,65.42
2023-08-18T08:13:14.984Z,66.39
2023-08-18T08:14:14.984Z,65.74
2023-08-18T08:15:15.006Z,66.71
2023-08-18T08:16:14.983Z,65.10
2023-08-18T08:17:14.956Z,70.25
2023-08-18T08:18:15.018Z,66.71
2023-08-18T08:19:18.290Z,68.16
2023-08-18T08:20:15.955Z,66.39
2023-08-18T08:21:14.913Z,66.55
2023-08-18T08:22:14.898Z,67.19
2023-08-18T08:23:14.882Z,70.58
2023-08-18T08:24:14.900Z,64.45
2023-08-18T08:25:14.884Z,66.06
2023-08-18T08:26:14.855Z,64.94
2023-08-18T08:27:14.846Z,65.74
2023-08-18T08:28:14.840Z,65.74
2023-08-18T08:29:14.840Z,66.71
2023-08-18T08:30:30.180Z,67.19
2023-08-18T08:31:16.847Z,66.23
2023-08-18T08:32:14.796Z,67.19
2023-08-18T08:33:17.085Z,68.48
2023-08-18T08:34:15.817Z,67.35
2023-08-18T08:35:14.766Z,63.81
2023-08-18T08:36:14.757Z,63.97
2023-08-18T08:37:14.747Z,66.23
2023-08-18T08:38:14.750Z,66.06
2023-08-18T08:39:14.737Z,66.87
2023-08-18T08:40:14.728Z,63.49
2023-08-18T08:41:14.703Z,66.23
2023-08-18T08:42:14.719Z,64.78
2023-08-18T08:43:14.697Z,68.16
2023-08-18T08:44:14.716Z,65.42
2023-08-18T08:45:14.668Z,64.13
2023-08-18T08:46:15.783Z,64.29
2023-08-18T08:47:17.594Z,63.65
2023-08-18T08:48:20.092Z,67.68
2023-08-18T08:49:15.621Z,65.42
2023-08-18T08:50:14.612Z,67.84
2023-08-18T08:51:14.613Z,65.26
2023-08-18T08:52:14.628Z,67.84
2023-08-18T08:53:14.590Z,64.13
2023-08-18T08:54:14.585Z,63.49
2023-08-18T08:55:14.577Z,65.26
2023-08-18T08:56:14.571Z,65.90
2023-08-18T08:57:14.571Z,65.58
2023-08-18T08:58:15.017Z,65.26
2023-08-18T08:59:17.821Z,62.52
2023-08-18T09:00:15.671Z,65.74
2023-08-18T09:01:14.559Z,62.84
2023-08-18T09:02:14.607Z,62.84
2023-08-18T09:03:14.558Z,65.10
2023-08-18T09:04:14.514Z,64.45
2023-08-18T09:05:14.466Z,66.23
2023-08-18T09:06:15.493Z,63.65
2023-08-18T09:07:14.456Z,65.74
2023-08-18T09:08:14.449Z,65.26
2023-08-18T09:09:14.427Z,65.26
2023-08-18T09:10:15.431Z,68.48
2023-08-18T09:11:15.424Z,65.42
2023-08-18T09:12:14.400Z,64.13
2023-08-18T09:13:14.397Z,68.80
2023-08-18T09:14:14.382Z,62.20
2023-08-18T09:15:14.382Z,64.61
2023-08-18T09:16:14.408Z,64.29
2023-08-18T09:17:14.362Z,66.39
2023-08-18T09:18:14.382Z,65.74
2023-08-18T09:19:14.363Z,80.08
2023-08-18T09:20:14.364Z,67.19
2023-08-18T09:21:14.307Z,63.81
2023-08-18T09:22:14.309Z,64.61
2023-08-18T09:23:14.296Z,73.48
2023-08-18T09:24:14.311Z,65.42
2023-08-18T09:25:14.318Z,65.90
2023-08-18T09:26:14.277Z,65.74
2023-08-18T09:27:14.256Z,64.78
2023-08-18T09:28:16.323Z,73.80
2023-08-18T09:29:15.252Z,70.90
2023-08-18T09:30:14.251Z,68.32
2023-08-18T09:31:14.264Z,67.03
2023-08-18T09:32:14.215Z,66.39
2023-08-18T09:33:14.256Z,67.19
2023-08-18T09:34:14.199Z,66.23
2023-08-18T09:35:14.170Z,67.35
2023-08-18T09:36:14.229Z,67.03
2023-08-18T09:37:14.144Z,66.23
2023-08-18T09:38:14.190Z,69.13
2023-08-18T09:39:14.146Z,68.48
2023-08-18T09:40:14.118Z,76.54
2023-08-18T09:41:14.122Z,81.05
2023-08-18T09:42:14.133Z,80.24
2023-08-18T09:43:14.109Z,69.45
2023-08-18T09:44:14.091Z,64.61
2023-08-18T09:45:14.069Z,64.94
2023-08-18T09:46:14.110Z,66.06
2023-08-18T09:47:14.048Z,64.78
2023-08-18T09:48:14.085Z,65.10
2023-08-18T09:49:14.028Z,65.74
2023-08-18T09:50:14.025Z,64.45
2023-08-18T09:51:14.033Z,64.94
2023-08-18T09:52:14.042Z,63.16
2023-08-18T09:53:14.012Z,66.06
2023-08-18T09:54:13.968Z,63.00
2023-08-18T09:55:14.974Z,64.61
2023-08-18T09:56:13.963Z,63.16
2023-08-18T09:57:13.975Z,61.71
2023-08-18T09:58:13.957Z,63.97
2023-08-18T09:59:13.976Z,65.10
2023-08-18T10:00:13.930Z,62.20
2023-08-18T10:01:13.914Z,63.16
2023-08-18T10:02:13.934Z,63.49
2023-08-18T10:03:13.935Z,64.13
2023-08-18T10:04:13.902Z,66.23
2023-08-18T10:05:13.865Z,62.20
2023-08-18T10:06:13.940Z,63.65
2023-08-18T10:07:13.876Z,63.97
2023-08-18T10:08:13.842Z,63.65
2023-08-18T10:09:13.831Z,64.13
2023-08-18T10:10:13.833Z,63.16
2023-08-18T10:11:13.860Z,63.97
2023-08-18T10:12:13.819Z,63.00
2023-08-18T10:13:13.804Z,66.06
2023-08-18T10:14:13.782Z,65.74
2023-08-18T10:15:13.772Z,64.29
2023-08-18T10:16:13.818Z,65.42
2023-08-18T10:17:13.765Z,64.45
2023-08-18T10:18:13.747Z,61.55
2023-08-18T10:19:13.746Z,59.46
2023-08-18T10:20:13.732Z,60.59
2023-08-18T10:21:13.758Z,62.52
2023-08-18T10:22:13.705Z,63.00
2023-08-18T10:23:13.694Z,63.16
2023-08-18T10:24:13.684Z,63.00
2023-08-18T10:25:13.699Z,63.16
2023-08-18T10:26:13.662Z,64.94
2023-08-18T10:27:13.689Z,64.61
2023-08-18T10:28:13.643Z,63.33
2023-08-18T10:29:22.578Z,64.29
2023-08-18T10:30:15.652Z,62.36
2023-08-18T10:31:13.679Z,63.81
2023-08-18T10:32:13.664Z,63.49
2023-08-18T10:33:13.635Z,64.78
2023-08-18T10:34:13.600Z,63.65
2023-08-18T10:35:13.702Z,62.36
2023-08-18T10:36:13.587Z,61.87
2023-08-18T10:37:13.565Z,60.26
2023-08-18T10:38:13.549Z,60.42
2023-08-18T10:39:13.562Z,59.46
2023-08-18T10:40:13.526Z,61.23
2023-08-18T10:41:13.523Z,65.90
2023-08-18T10:42:13.508Z,64.78
2023-08-18T10:43:13.591Z,61.87
2023-08-18T10:44:13.511Z,61.55
2023-08-18T10:45:13.482Z,63.33
2023-08-18T10:46:13.622Z,61.71
2023-08-18T10:47:13.463Z,63.33
2023-08-18T10:48:15.146Z,64.13
2023-08-18T10:49:14.446Z,58.01
2023-08-18T10:50:13.435Z,63.33
2023-08-18T10:51:13.442Z,57.69
2023-08-18T10:52:13.422Z,57.20
2023-08-18T10:53:13.426Z,57.04
2023-08-18T10:54:13.398Z,56.56
2023-08-18T10:55:13.397Z,59.14
2023-08-18T10:56:13.378Z,56.07
2023-08-18T10:57:13.403Z,57.69
2023-08-18T10:58:13.377Z,56.72
2023-08-18T10:59:13.356Z,55.75
2023-08-18T11:00:13.349Z,56.07
2023-08-18T11:01:13.350Z,57.20
2023-08-18T11:02:13.335Z,56.72
2023-08-18T11:03:13.362Z,57.04
2023-08-18T11:04:13.321Z,59.78
2023-08-18T11:05:13.292Z,59.78
2023-08-18T11:06:13.274Z,59.46
2023-08-18T11:07:13.295Z,60.75
2023-08-18T11:08:13.265Z,58.81
2023-08-18T11:09:13.249Z,58.65
2023-08-18T11:10:13.245Z,58.97
2023-08-18T11:11:13.252Z,57.04
2023-08-18T11:12:13.228Z,56.07
2023-08-18T11:13:15.492Z,54.62
2023-08-18T11:14:13.201Z,57.52
2023-08-18T11:15:13.192Z,56.07
2023-08-18T11:16:13.259Z,57.69
2023-08-18T11:17:13.161Z,57.20
2023-08-18T11:18:13.153Z,56.24
2023-08-18T11:19:13.202Z,53.33
2023-08-18T11:20:13.141Z,53.50
2023-08-18T11:21:13.129Z,55.11
2023-08-18T11:22:13.119Z,54.95
2023-08-18T11:23:13.099Z,53.01
2023-08-18T11:24:13.085Z,49.95
2023-08-18T11:25:13.378Z,53.50
2023-08-18T11:26:13.082Z,55.27
2023-08-18T11:27:13.099Z,51.24
2023-08-18T11:28:13.038Z,51.40
2023-08-18T11:29:13.052Z,50.92
2023-08-18T11:30:13.039Z,52.37
2023-08-18T11:31:13.040Z,59.14
2023-08-18T11:32:13.002Z,55.59
2023-08-18T11:33:13.073Z,56.40
2023-08-18T11:34:12.991Z,55.27
2023-08-18T11:35:13.001Z,56.24
2023-08-18T11:36:12.996Z,57.85
2023-08-18T11:37:12.968Z,56.88
2023-08-18T11:38:12.948Z,61.23
2023-08-18T11:39:12.954Z,61.71
2023-08-18T11:40:12.945Z,58.81
2023-08-18T11:41:12.927Z,60.10
2023-08-18T11:42:12.957Z,57.20
2023-08-18T11:43:12.898Z,56.56
2023-08-18T11:44:12.947Z,60.59
2023-08-18T11:45:12.880Z,60.26
2023-08-18T11:46:12.867Z,59.78
2023-08-18T11:47:12.863Z,60.75
2023-08-18T11:48:12.854Z,63.16
2023-08-18T11:49:12.858Z,62.04
2023-08-18T11:50:12.829Z,63.00
2023-08-18T11:51:13.829Z,61.23
2023-08-18T11:52:12.820Z,58.65
2023-08-18T11:53:13.023Z,56.88
2023-08-18T11:54:12.802Z,60.91
2023-08-18T11:55:12.791Z,61.71
2023-08-18T11:56:12.798Z,62.68
2023-08-18T11:57:12.778Z,61.23
2023-08-18T11:58:12.763Z,59.78
2023-08-18T11:59:12.743Z,58.65
2023-08-18T12:00:12.746Z,58.49
2023-08-18T12:01:12.786Z,58.81
2023-08-18T12:02:12.722Z,59.62
2023-08-18T12:03:12.777Z,59.78
2023-08-18T12:04:12.771Z,60.75
2023-08-18T12:05:12.677Z,62.04
2023-08-18T12:06:12.726Z,60.26
2023-08-18T12:07:12.689Z,59.94
2023-08-18T12:08:12.664Z,61.23
2023-08-18T12:09:12.640Z,60.10
2023-08-18T12:10:12.646Z,57.20
2023-08-18T12:11:12.626Z,61.07
2023-08-18T12:12:12.636Z,60.91
2023-08-18T12:13:12.601Z,54.95
2023-08-18T12:14:12.592Z,58.33
2023-08-18T12:15:12.600Z,53.50
2023-08-18T12:16:12.616Z,54.62
2023-08-18T12:17:12.577Z,53.01
2023-08-18T12:18:12.564Z,53.01
2023-08-18T12:19:12.566Z,54.62
2023-08-18T12:20:12.541Z,51.88
2023-08-18T12:21:12.546Z,50.27
2023-08-18T12:22:12.550Z,53.01
2023-08-18T12:23:12.523Z,51.88
2023-08-18T12:24:12.504Z,51.24
2023-08-18T12:25:12.494Z,53.50
2023-08-18T12:26:12.512Z,56.56
2023-08-18T12:27:12.486Z,54.14
2023-08-18T12:28:12.474Z,53.66
2023-08-18T12:29:12.465Z,52.21
2023-08-18T12:30:12.454Z,50.92
2023-08-18T12:31:12.489Z,51.72
2023-08-18T12:32:14.519Z,50.11
2023-08-18T12:33:13.448Z,50.60
2023-08-18T12:34:12.417Z,53.17
2023-08-18T12:35:12.420Z,53.33
2023-08-18T12:36:13.414Z,58.17
2023-08-18T12:37:12.388Z,53.01
2023-08-18T12:38:12.366Z,62.68
2023-08-18T12:39:12.369Z,57.36
2023-08-18T12:40:12.385Z,55.59
2023-08-18T12:41:12.337Z,54.30
2023-08-18T12:42:12.332Z,53.66
2023-08-18T12:43:12.333Z,54.79
2023-08-18T12:44:12.329Z,52.05
2023-08-18T12:45:12.328Z,53.01
2023-08-18T12:46:12.354Z,56.72
2023-08-18T12:47:12.282Z,55.11
2023-08-18T12:48:12.285Z,54.14
2023-08-18T12:49:12.286Z,57.20
2023-08-18T12:50:14.522Z,53.50
2023-08-18T12:51:13.244Z,59.78
2023-08-18T12:52:12.234Z,69.45